createdAt,value
2019-02-17T00:04:54.316Z,98740.98
2019-02-17T00:09:57.814Z,98733.22
2019-02-17T00:15:01.260Z,98731.75
2019-02-17T00:20:04.852Z,98729.56
2019-02-17T00:25:08.488Z,98723.58
2019-02-17T00:30:12.032Z,98727.77
2019-02-17T00:35:15.470Z,98719.63
2019-02-17T00:40:18.883Z,98726.05
2019-02-17T00:45:22.294Z,98729.44
2019-02-17T00:50:25.748Z,98730.78
2019-02-17T00:55:29.152Z,98733.19
2019-02-17T01:00:32.540Z,98731.11
2019-02-17T01:05:36.232Z,98736.47
2019-02-17T01:10:39.625Z,98741.13
2019-02-17T01:15:43.092Z,98734.76
2019-02-17T01:20:46.655Z,98739.42
2019-02-17T01:25:50.140Z,98731.25
2019-02-17T01:30:53.755Z,98729.08
2019-02-17T01:35:57.203Z,98720.84
2019-02-17T01:41:00.671Z,98719.14
2019-02-17T01:46:04.275Z,98716.15
2019-02-17T01:51:07.782Z,98708.30
2019-02-17T01:56:11.478Z,98716.38
2019-02-17T02:01:17.180Z,98708.59
2019-02-17T02:06:19.569Z,98706.07
2019-02-17T02:11:23.054Z,98709.02
2019-02-17T02:16:26.591Z,98698.29
2019-02-17T02:21:30.000Z,98700.98
2019-02-17T02:26:33.381Z,98693.20
2019-02-17T02:31:36.787Z,98701.27
2019-02-17T02:36:41.234Z,98691.50
2019-02-17T02:41:44.795Z,98691.11
2019-02-17T02:46:49.508Z,98691.05
2019-02-17T02:51:52.937Z,98691.67
2019-02-17T02:56:56.468Z,98687.91
2019-02-17T03:01:59.858Z,98684.00
2019-02-17T03:07:05.952Z,98677.11
2019-02-17T03:12:09.410Z,98675.63
2019-02-17T03:17:12.931Z,98676.02
2019-02-17T03:22:16.375Z,98677.22
2019-02-17T03:27:19.857Z,98680.16
2019-02-17T03:32:23.273Z,98675.44
2019-02-17T03:37:26.684Z,98674.01
2019-02-17T03:42:30.139Z,98673.58
2019-02-17T03:47:33.535Z,98680.36
2019-02-17T03:52:37.005Z,98676.02
2019-02-17T03:57:40.434Z,98672.19
2019-02-17T04:02:43.838Z,98670.71
2019-02-17T04:07:47.347Z,98665.95
2019-02-17T04:12:50.815Z,98668.50
2019-02-17T04:17:54.269Z,98669.96
2019-02-17T04:22:57.796Z,98676.27
2019-02-17T04:28:01.254Z,98671.20
2019-02-17T04:33:04.666Z,98668.39
2019-02-17T04:38:08.056Z,98669.38
2019-02-17T04:43:11.716Z,98667.24
2019-02-17T04:48:15.230Z,98665.54
2019-02-17T04:53:18.678Z,98675.41
2019-02-17T04:58:22.309Z,98669.59
2019-02-17T05:03:25.758Z,98663.20
2019-02-17T05:08:29.172Z,98656.31
2019-02-17T05:13:32.597Z,98655.41
2019-02-17T05:18:36.126Z,98662.14
2019-02-17T05:23:39.709Z,98666.17
2019-02-17T05:28:43.126Z,98665.84
2019-02-17T05:33:46.657Z,98670.95
2019-02-17T05:38:50.210Z,98672.64
2019-02-17T05:43:53.686Z,98677.45
2019-02-17T05:48:57.105Z,98675.25
2019-02-17T05:54:00.526Z,98687.06
2019-02-17T05:59:03.940Z,98686.42
2019-02-17T06:04:07.389Z,98687.69
2019-02-17T06:09:10.811Z,98693.60
2019-02-17T06:14:14.397Z,98688.36
2019-02-17T06:19:17.978Z,98699.09
2019-02-17T06:24:21.404Z,98703.77
2019-02-17T06:29:24.806Z,98709.86
2019-02-17T06:34:28.278Z,98716.33
2019-02-17T06:39:31.791Z,98714.40
2019-02-17T06:44:35.305Z,98720.02
2019-02-17T06:49:38.824Z,98719.20
2019-02-17T06:54:42.488Z,98722.80
2019-02-17T06:59:46.396Z,98724.59
2019-02-17T07:04:55.072Z,98727.09
2019-02-17T07:09:58.607Z,98730.00
2019-02-17T07:15:02.117Z,98732.81
2019-02-17T07:20:05.909Z,98734.09
2019-02-17T07:25:10.407Z,98735.91
2019-02-17T07:30:13.892Z,98737.09
2019-02-17T07:35:17.397Z,98737.38
2019-02-17T07:40:20.908Z,98727.69
2019-02-17T07:45:24.478Z,98734.73
2019-02-17T07:50:28.980Z,98734.53
2019-02-17T07:55:32.534Z,98735.73
2019-02-17T08:00:37.107Z,98724.62
2019-02-17T08:05:40.648Z,98731.48
2019-02-17T08:10:44.204Z,98726.95
2019-02-17T08:15:47.674Z,98727.22
2019-02-17T08:20:52.173Z,98727.05
2019-02-17T08:25:55.839Z,98728.48
2019-02-17T08:30:59.288Z,98720.63
2019-02-17T08:36:03.052Z,98716.53
2019-02-17T08:41:06.533Z,98709.11
2019-02-17T08:46:10.106Z,98711.81
2019-02-17T08:51:13.557Z,98713.64
2019-02-17T08:56:18.779Z,98711.56
2019-02-17T09:01:20.659Z,98707.36
2019-02-17T09:06:24.104Z,98706.58
2019-02-17T09:11:27.696Z,98702.78
2019-02-17T09:16:31.115Z,98698.98
2019-02-17T09:21:34.624Z,98703.28
2019-02-17T09:26:39.082Z,98696.75
2019-02-17T09:31:42.805Z,98685.88
2019-02-17T09:36:46.405Z,98684.64
2019-02-17T09:41:50.049Z,98683.38
2019-02-17T09:46:53.623Z,98685.38
2019-02-17T09:51:57.180Z,98680.20
2019-02-17T09:57:00.734Z,98674.06
2019-02-17T10:02:04.251Z,98672.14
2019-02-17T10:07:07.805Z,98669.39
2019-02-17T10:12:11.410Z,98662.34
2019-02-17T10:17:15.056Z,98656.79
2019-02-17T10:22:18.555Z,98657.12
2019-02-17T10:27:22.270Z,98649.98
2019-02-17T10:32:25.879Z,98647.62
2019-02-17T10:37:29.962Z,98642.78
2019-02-17T10:42:33.525Z,98633.72
2019-02-17T10:47:37.032Z,98622.06
2019-02-17T10:52:40.552Z,98612.75
2019-02-17T10:57:46.223Z,98605.07
2019-02-17T11:02:49.765Z,98598.81
2019-02-17T11:07:53.211Z,98581.13
2019-02-17T11:12:56.781Z,98577.78
2019-02-17T11:18:00.229Z,98575.58
2019-02-17T11:23:03.725Z,98565.41
2019-02-17T11:28:07.196Z,98562.20
2019-02-17T11:33:10.715Z,98555.31
2019-02-17T11:38:14.183Z,98547.70
2019-02-17T11:43:17.799Z,98533.72
2019-02-17T11:48:22.289Z,98531.88
2019-02-17T11:53:25.927Z,98530.58
2019-02-17T11:58:29.576Z,98523.73
2019-02-17T12:03:33.249Z,98528.22
2019-02-17T12:08:36.845Z,98518.25
2019-02-17T12:13:40.328Z,98508.13
2019-02-17T12:18:44.004Z,98508.52
2019-02-17T12:23:51.694Z,98495.69
2019-02-17T12:28:59.428Z,98490.39
2019-02-17T12:34:02.990Z,98484.86
2019-02-17T12:39:08.587Z,98477.89
2019-02-17T12:44:12.180Z,98474.42
2019-02-17T12:49:15.772Z,98465.59
2019-02-17T12:54:28.637Z,98454.66
2019-02-17T12:59:22.953Z,98450.20
2019-02-17T13:04:27.136Z,98438.97
2019-02-17T13:09:30.751Z,98441.19
2019-02-17T13:14:34.373Z,98438.97
2019-02-17T13:19:37.800Z,98424.86
2019-02-17T13:24:41.235Z,98420.79
2019-02-17T13:29:44.686Z,98417.02
2019-02-17T13:34:48.119Z,98408.30
2019-02-17T13:39:51.560Z,98402.33
2019-02-17T13:44:55.022Z,98396.52
2019-02-17T13:49:58.451Z,98388.59
2019-02-17T13:55:01.932Z,98393.11
2019-02-17T14:00:07.351Z,98387.44
2019-02-17T14:05:10.854Z,98384.56
2019-02-17T14:10:14.524Z,98375.38
2019-02-17T14:15:18.077Z,98373.42
2019-02-17T14:20:21.690Z,98362.50
2019-02-17T14:25:25.301Z,98357.37
2019-02-17T14:30:30.358Z,98349.06
2019-02-17T14:35:32.407Z,98351.77
2019-02-17T14:40:35.904Z,98338.08
2019-02-17T14:45:39.408Z,98334.88
2019-02-17T14:50:42.868Z,98333.18
2019-02-17T14:55:46.309Z,98324.25
2019-02-17T15:00:49.877Z,98326.30
2019-02-17T15:05:53.812Z,98328.77
2019-02-17T15:10:57.284Z,98322.55
2019-02-17T15:16:00.781Z,98320.88
2019-02-17T15:21:04.389Z,98314.34
2019-02-17T15:26:08.047Z,98312.02
2019-02-17T15:31:11.663Z,98300.03
2019-02-17T15:36:15.228Z,98298.28
2019-02-17T15:41:19.409Z,98308.11
2019-02-17T15:46:22.878Z,98304.36
2019-02-17T15:51:26.470Z,98295.66
2019-02-17T15:56:30.083Z,98297.96
2019-02-17T16:01:33.686Z,98303.83
2019-02-17T16:06:37.220Z,98299.88
2019-02-17T16:11:40.857Z,98294.88
2019-02-17T16:16:44.401Z,98296.78
2019-02-17T16:21:48.104Z,98304.17
2019-02-17T16:26:51.599Z,98308.69
2019-02-17T16:31:55.992Z,98302.30
2019-02-17T16:36:59.449Z,98307.53
2019-02-17T16:42:03.088Z,98311.45
2019-02-17T16:47:06.776Z,98317.95
2019-02-17T16:52:10.264Z,98324.11
2019-02-17T16:57:14.729Z,98325.78
2019-02-17T17:02:18.535Z,98330.25
2019-02-17T17:07:21.987Z,98335.04
2019-02-17T17:12:25.472Z,98341.73
2019-02-17T17:17:31.684Z,98339.50
2019-02-17T17:22:33.547Z,98342.96
2019-02-17T17:27:37.072Z,98343.11
2019-02-17T17:32:40.609Z,98337.33
2019-02-17T17:37:44.061Z,98335.97
2019-02-17T17:42:47.526Z,98336.05
2019-02-17T17:47:52.417Z,98336.33
2019-02-17T17:52:55.978Z,98334.70
2019-02-17T17:57:59.420Z,98347.88
2019-02-17T18:03:02.966Z,98355.43
2019-02-17T18:08:06.428Z,98357.22
2019-02-17T18:13:10.058Z,98358.42
2019-02-17T18:18:13.722Z,98363.86
2019-02-17T18:23:17.394Z,98361.45
2019-02-17T18:28:20.951Z,98360.69
2019-02-17T18:33:24.496Z,98361.67
2019-02-17T18:38:28.065Z,98365.76
2019-02-17T18:43:31.733Z,98370.39
2019-02-17T18:48:35.351Z,98372.70
2019-02-17T18:53:39.114Z,98374.57
2019-02-17T18:58:42.679Z,98374.20
2019-02-17T19:03:46.150Z,98372.63
2019-02-17T19:08:49.724Z,98376.64
2019-02-17T19:13:53.279Z,98376.39
2019-02-17T19:18:57.064Z,98374.48
2019-02-17T19:24:00.821Z,98379.80
2019-02-17T19:29:04.580Z,98382.41
2019-02-17T19:34:08.166Z,98387.13
2019-02-17T19:39:11.695Z,98382.44
2019-02-17T19:44:15.255Z,98383.77
2019-02-17T19:49:18.919Z,98378.70
2019-02-17T19:54:22.618Z,98387.78
2019-02-17T19:59:26.069Z,98398.11
2019-02-17T20:04:36.199Z,98390.88
2019-02-17T20:09:40.860Z,98386.59
2019-02-17T20:14:44.669Z,98385.40
2019-02-17T20:19:48.195Z,98387.58
2019-02-17T20:24:51.908Z,98388.42
2019-02-17T20:29:55.672Z,98383.73
2019-02-17T20:34:59.171Z,98388.04
2019-02-17T20:40:02.863Z,98385.92
2019-02-17T20:45:07.183Z,98388.95
2019-02-17T20:50:10.750Z,98385.98
2019-02-17T20:55:14.495Z,98390.70
2019-02-17T21:00:18.208Z,98387.28
2019-02-17T21:05:21.989Z,98387.30
2019-02-17T21:10:25.783Z,98384.73
2019-02-17T21:15:30.098Z,98386.42
2019-02-17T21:20:34.951Z,98382.58
2019-02-17T21:25:38.545Z,98383.45
2019-02-17T21:30:42.121Z,98383.02
2019-02-17T21:35:45.716Z,98391.16
2019-02-17T21:40:49.132Z,98391.15
2019-02-17T21:45:52.837Z,98391.98
2019-02-17T21:50:56.428Z,98385.56
2019-02-17T21:55:59.873Z,98385.98
2019-02-17T22:01:03.415Z,98381.26
2019-02-17T22:06:07.072Z,98383.81
2019-02-17T22:11:10.615Z,98375.69
2019-02-17T22:16:14.300Z,98385.50
2019-02-17T22:21:18.012Z,98379.50
2019-02-17T22:26:21.456Z,98377.37
2019-02-17T22:31:25.135Z,98379.48
2019-02-17T22:36:28.656Z,98377.79
2019-02-17T22:41:32.196Z,98376.02
2019-02-17T22:46:36.047Z,98381.17
2019-02-17T22:51:39.822Z,98379.02
2019-02-17T22:56:43.220Z,98383.22
2019-02-17T23:01:46.725Z,98384.10
2019-02-17T23:06:54.050Z,98386.16
2019-02-17T23:11:53.670Z,98381.84
2019-02-17T23:16:57.072Z,98380.53
2019-02-17T23:22:00.637Z,98383.09
2019-02-17T23:27:05.128Z,98387.34
2019-02-17T23:32:08.654Z,98386.08
2019-02-17T23:37:12.047Z,98383.03
2019-02-17T23:42:15.590Z,98392.45
2019-02-17T23:47:19.003Z,98387.31
2019-02-17T23:52:22.441Z,98385.09
2019-02-17T23:57:25.861Z,98383.79
